Aviation Digital Data Service (ADDS)

Output produced by METARs form (1217 UTC 15 November 2018)
found at http://www.aviationweather.gov/metar/data/
 
HBBA 151100Z 00000KT 9999 SCT020 FEW025CB BKN100 26/19 Q1011
TAF HBBA 151100Z 1512/1618 18010G25KT 9999 FEW030 BKN100 
     PROB40 
     TEMPO 1513/1515 7000 FEW030CB SHRA OR TSRA 
     BECMG 1517/1519 00000KT CAVOK 
     BECMG 1602/1604 36003KT 
     BECMG 1607/1609 18010G25KT 9999 FEW030 BKN100 
     PROB40 
     TEMPO 1613/1615 7000 FEW030 CB SHRA OR TSRA